Terminal Aerodrome Forecast
Issued by NWS Omaha/Valley, NE

Home | Current Version | Previous Version | Graphics & Text | Print | Product List | Glossary On
Versions: 1 2 3 4 5 6 7 8 9 10 11 12 13 14 15 16 17 18 19 20
000
FTUS43 KOAX 231136
TAFOFK
TAF
KOFK 231136Z 2312/2412 25006KT P6SM OVC050
      TEMPO 2312/2315 VRB06KT 6SM -TSRA OVC025CB
     FM231700 20010KT P6SM BKN050
     FM240000 19004KT P6SM OVC250
     FM240900 22003KT 5SM BR SCT250=

USA.gov is the U.S. government's official web portal to all federal, state and local government web resources and services.